Sparwood, Canada
Current Conditions -  °F | °C
As of 5:00 PM on Sunday 23 Nov 2014 (Local Time) from CWSW Reporting Station
Light Snow Light Snow  
Wind Chill: 32°   Ceiling: 2000
Heat Index: 32°   Visibility: 2.5mi
Dew Point: 28°   Wind: 2mph
Humidity: 87%   Direction: NA
Pressure: 29.81"   Gusts: NA
Location:  49.72°N, 114.89°W
Report Text: CWSW 240000Z VRB02KT 2 1/2SM -SN VV020 M00/M02 A2981 RMK SN8 LAST OBS/NEXT 241400Z SLP138
Loading
Personal Weather Stations






























Interactive Weather Map New forecast layout! Learn more

10-Day Weather Forecast

Advertisements
Track Severe Weather on mobile